createdAt,value
2023-01-26T00:00:01.272Z,95145.22
2023-01-26T00:00:58.140Z,95131.44
2023-01-26T00:01:55.359Z,95090.63
2023-01-26T00:02:52.263Z,95180.91
2023-01-26T00:03:50.684Z,95158.88
2023-01-26T00:04:50.377Z,95019.50
2023-01-26T00:05:49.750Z,95160.63
2023-01-26T00:06:46.587Z,95156.13
2023-01-26T00:07:45.533Z,95064.75
2023-01-26T00:08:46.022Z,95162.78
2023-01-26T00:09:42.904Z,95128.56
2023-01-26T00:10:41.828Z,95142.72
2023-01-26T00:11:39.406Z,95186.44
2023-01-26T00:12:36.165Z,94919.53
2023-01-26T00:13:34.281Z,95071.44
2023-01-26T00:14:50.040Z,95110.06
2023-01-26T00:15:47.103Z,95176.00
2023-01-26T00:16:44.056Z,94996.78
2023-01-26T00:17:40.909Z,95093.53
2023-01-26T00:18:40.004Z,95050.31
2023-01-26T00:19:39.860Z,95200.22
2023-01-26T00:20:36.660Z,95193.22
2023-01-26T00:21:36.452Z,95150.34
2023-01-26T00:22:33.509Z,95166.09
2023-01-26T00:23:32.885Z,95079.84
2023-01-26T00:24:29.692Z,95171.44
2023-01-26T00:25:26.451Z,95170.50
2023-01-26T00:26:25.550Z,95177.13
2023-01-26T00:27:22.395Z,95103.59
2023-01-26T00:28:19.317Z,94754.66
2023-01-26T00:29:16.053Z,95095.28
2023-01-26T00:30:13.419Z,95184.09
2023-01-26T00:31:25.815Z,95033.47
2023-01-26T00:32:22.686Z,94910.31
2023-01-26T00:33:19.492Z,94947.44
2023-01-26T00:34:16.319Z,95150.13
2023-01-26T00:35:13.153Z,95168.72
2023-01-26T00:36:10.615Z,94850.16
2023-01-26T00:37:07.396Z,95157.47
2023-01-26T00:38:05.056Z,95156.16
2023-01-26T00:39:02.860Z,94962.38
2023-01-26T00:39:59.720Z,95143.53
2023-01-26T00:40:56.775Z,95141.78
2023-01-26T00:42:11.612Z,95154.56
2023-01-26T00:43:08.526Z,95145.97
2023-01-26T00:44:05.297Z,95093.63
2023-01-26T00:45:02.148Z,95071.41
2023-01-26T00:45:58.959Z,95116.72
2023-01-26T00:46:55.688Z,95163.63
2023-01-26T00:47:52.461Z,95104.84
2023-01-26T00:48:49.259Z,95136.00
2023-01-26T00:49:48.190Z,95128.53
2023-01-26T00:50:45.061Z,94996.59
2023-01-26T00:51:41.750Z,95069.16
2023-01-26T00:52:38.584Z,94922.47
2023-01-26T00:53:39.903Z,95076.13
2023-01-26T00:54:36.651Z,94988.34
2023-01-26T00:55:33.604Z,94647.91
2023-01-26T00:56:30.407Z,95148.56
2023-01-26T00:57:27.661Z,95135.53
2023-01-26T00:58:24.503Z,94966.91
2023-01-26T00:59:21.433Z,95112.75
2023-01-26T01:00:19.717Z,95021.06
2023-01-26T01:01:16.460Z,95072.97
2023-01-26T01:02:13.219Z,95133.56
2023-01-26T01:03:09.994Z,95041.88
2023-01-26T01:04:06.959Z,95137.31
2023-01-26T01:05:04.140Z,94918.34
2023-01-26T01:06:00.949Z,95032.59
2023-01-26T01:06:58.822Z,95061.06
2023-01-26T01:07:56.333Z,95074.94
2023-01-26T01:08:53.137Z,94998.09
2023-01-26T01:09:50.232Z,95112.44
2023-01-26T01:10:46.973Z,95116.81
2023-01-26T01:11:45.629Z,94989.63
2023-01-26T01:12:42.573Z,95118.38
2023-01-26T01:13:39.749Z,95113.34
2023-01-26T01:14:36.871Z,95089.94
2023-01-26T01:15:33.670Z,95135.44
2023-01-26T01:16:30.863Z,94904.66
2023-01-26T01:17:27.614Z,94928.63
2023-01-26T01:18:24.557Z,95091.88
2023-01-26T01:19:21.363Z,95020.75
2023-01-26T01:20:18.504Z,95032.69
2023-01-26T01:21:17.676Z,95131.44
2023-01-26T01:22:14.483Z,95106.19
2023-01-26T01:23:11.227Z,95094.50
2023-01-26T01:24:08.361Z,95032.66
2023-01-26T01:25:05.656Z,95107.66
2023-01-26T01:26:03.207Z,95025.34
2023-01-26T01:27:00.021Z,95091.88
2023-01-26T01:27:56.780Z,94815.97
2023-01-26T01:28:55.837Z,94944.88
2023-01-26T01:29:53.554Z,95096.59
2023-01-26T01:30:50.528Z,94887.13
2023-01-26T01:31:47.422Z,95116.22
2023-01-26T01:32:44.955Z,95132.16
2023-01-26T01:33:42.790Z,94894.28
2023-01-26T01:34:39.546Z,95110.09
2023-01-26T01:35:36.460Z,94975.16
2023-01-26T01:36:33.247Z,95049.91
2023-01-26T01:37:30.657Z,95121.41
2023-01-26T01:38:28.421Z,95119.13
2023-01-26T01:39:25.347Z,95109.72
2023-01-26T01:40:22.154Z,94900.75
2023-01-26T01:41:22.791Z,95112.59
2023-01-26T01:42:20.363Z,95021.72
2023-01-26T01:43:17.534Z,94905.47
2023-01-26T01:44:17.685Z,95117.50
2023-01-26T01:45:26.809Z,95088.25
2023-01-26T01:46:35.840Z,94949.03
2023-01-26T01:47:32.998Z,95053.38
2023-01-26T01:48:36.111Z,95081.72
2023-01-26T01:49:50.060Z,95062.53
2023-01-26T01:50:50.011Z,95106.69
2023-01-26T01:52:05.570Z,95037.91
2023-01-26T01:53:03.154Z,95068.25
2023-01-26T01:54:05.891Z,95131.94
2023-01-26T01:55:08.749Z,94891.16
2023-01-26T01:56:15.003Z,94999.38
2023-01-26T01:57:17.717Z,95126.13
2023-01-26T01:58:14.925Z,94965.47
2023-01-26T01:59:13.727Z,95061.28
2023-01-26T02:00:16.009Z,95110.38
2023-01-26T02:01:12.814Z,95100.56
2023-01-26T02:02:10.963Z,94732.25
2023-01-26T02:03:14.994Z,95037.59
2023-01-26T02:04:11.982Z,95078.19
2023-01-26T02:05:32.467Z,94878.84
2023-01-26T02:06:49.095Z,95065.13
2023-01-26T02:07:47.301Z,95055.38
2023-01-26T02:08:49.115Z,95089.09
2023-01-26T02:10:04.757Z,95107.75
2023-01-26T02:11:08.061Z,95109.97
2023-01-26T02:12:08.922Z,95040.69
2023-01-26T02:13:07.364Z,95077.16
2023-01-26T02:14:09.705Z,95051.28
2023-01-26T02:15:07.479Z,94961.34
2023-01-26T02:16:04.742Z,95016.81
2023-01-26T02:17:01.682Z,95089.72
2023-01-26T02:18:04.960Z,95071.19
2023-01-26T02:19:02.675Z,95024.03
2023-01-26T02:20:15.817Z,95085.81
2023-01-26T02:21:19.195Z,95092.16
2023-01-26T02:22:34.160Z,94851.94
2023-01-26T02:23:48.995Z,95040.41
2023-01-26T02:24:46.210Z,94951.31
2023-01-26T02:25:56.144Z,95032.75
2023-01-26T02:26:54.780Z,94531.81
2023-01-26T02:27:51.957Z,95038.66
2023-01-26T02:28:50.076Z,94977.63
2023-01-26T02:29:46.963Z,95001.28
2023-01-26T02:30:44.242Z,95058.53
2023-01-26T02:31:41.566Z,94999.31
2023-01-26T02:32:38.381Z,95061.47
2023-01-26T02:33:35.313Z,94858.75
2023-01-26T02:34:32.249Z,94905.56
2023-01-26T02:35:29.088Z,94999.63
2023-01-26T02:36:31.656Z,95046.34
2023-01-26T02:37:28.470Z,94809.00
2023-01-26T02:38:33.940Z,94825.19
2023-01-26T02:39:49.771Z,95024.16
2023-01-26T02:41:02.836Z,95038.06
2023-01-26T02:42:17.909Z,95027.84
2023-01-26T02:43:15.301Z,94998.44
2023-01-26T02:44:14.090Z,95027.50
2023-01-26T02:45:14.561Z,94918.06
2023-01-26T02:46:11.410Z,95035.47
2023-01-26T02:47:13.790Z,95020.81
2023-01-26T02:48:10.566Z,94853.41
2023-01-26T02:49:26.179Z,95042.47
2023-01-26T02:50:22.928Z,94809.94
2023-01-26T02:51:19.798Z,94868.94
2023-01-26T02:52:28.593Z,94812.53
2023-01-26T02:53:25.422Z,95023.13
2023-01-26T02:54:40.884Z,95022.28
2023-01-26T02:55:37.705Z,94985.22
2023-01-26T02:56:39.724Z,94851.44
2023-01-26T02:57:36.902Z,95003.09
2023-01-26T02:58:33.701Z,94955.91
2023-01-26T02:59:30.416Z,95023.13
2023-01-26T03:00:34.910Z,94910.94
2023-01-26T03:01:32.632Z,94998.06
2023-01-26T03:02:29.587Z,94989.97
2023-01-26T03:03:45.186Z,95005.44
2023-01-26T03:04:43.951Z,94986.56
2023-01-26T03:05:41.508Z,94994.97
2023-01-26T03:06:41.026Z,95014.03
2023-01-26T03:07:38.173Z,94885.59
2023-01-26T03:08:35.197Z,95018.94
2023-01-26T03:09:32.082Z,94868.91
2023-01-26T03:10:28.909Z,94921.81
2023-01-26T03:11:42.097Z,94790.16
2023-01-26T03:12:39.287Z,94811.13
2023-01-26T03:13:36.682Z,94886.13
2023-01-26T03:14:33.477Z,94982.72
2023-01-26T03:16:08.934Z,94890.25
2023-01-26T03:17:05.826Z,94884.34
2023-01-26T03:18:33.658Z,94990.63
2023-01-26T03:19:49.136Z,94955.81
2023-01-26T03:21:04.211Z,94785.00
2023-01-26T03:22:20.246Z,94726.38
2023-01-26T03:23:35.778Z,94988.53
2023-01-26T03:24:51.210Z,94942.16
2023-01-26T03:26:06.441Z,94974.59
2023-01-26T03:27:22.041Z,94817.78
2023-01-26T03:28:22.385Z,94917.81
2023-01-26T03:29:19.665Z,94968.00
2023-01-26T03:30:19.293Z,94933.09
2023-01-26T03:31:16.096Z,94827.06
2023-01-26T03:32:13.779Z,94920.19
2023-01-26T03:33:10.495Z,94926.09
2023-01-26T03:34:07.423Z,94830.72
2023-01-26T03:35:04.542Z,94876.97
2023-01-26T03:36:01.273Z,94820.31
2023-01-26T03:36:58.168Z,94861.00
2023-01-26T03:37:55.264Z,94877.19
2023-01-26T03:38:52.052Z,94826.47
2023-01-26T03:40:09.545Z,94765.50
2023-01-26T03:41:24.961Z,94769.22
2023-01-26T03:42:40.291Z,94993.16
2023-01-26T03:43:55.356Z,94978.19
2023-01-26T03:45:10.597Z,94969.09
2023-01-26T03:46:27.175Z,94993.16
2023-01-26T03:47:42.579Z,94970.38
2023-01-26T03:48:57.833Z,94944.59
2023-01-26T03:50:13.552Z,94748.88
2023-01-26T03:51:29.189Z,94902.13
2023-01-26T03:52:44.558Z,94911.41
2023-01-26T03:53:59.988Z,94946.72
2023-01-26T03:55:15.173Z,94970.09
2023-01-26T03:56:21.929Z,94965.59
2023-01-26T03:57:18.771Z,94954.53
2023-01-26T03:58:15.659Z,94972.09
2023-01-26T03:59:15.337Z,94587.69
2023-01-26T04:00:15.135Z,94975.56
2023-01-26T04:01:20.195Z,94883.50
2023-01-26T04:02:35.607Z,94920.78
2023-01-26T04:03:51.012Z,94722.13
2023-01-26T04:05:06.559Z,94865.16
2023-01-26T04:06:22.060Z,94926.56
2023-01-26T04:07:37.326Z,94939.47
2023-01-26T04:08:34.211Z,94984.69
2023-01-26T04:09:32.132Z,94943.84
2023-01-26T04:10:29.307Z,94928.09
2023-01-26T04:11:26.115Z,94689.31
2023-01-26T04:12:23.103Z,94895.69
2023-01-26T04:13:40.895Z,94808.00
2023-01-26T04:14:56.119Z,94903.84
2023-01-26T04:16:11.658Z,94569.06
2023-01-26T04:17:27.345Z,94952.78
2023-01-26T04:18:42.995Z,94819.69
2023-01-26T04:19:58.266Z,94927.50
2023-01-26T04:21:14.253Z,94954.19
2023-01-26T04:22:14.598Z,94924.00
2023-01-26T04:23:20.552Z,94911.16
2023-01-26T04:24:17.583Z,94899.59
2023-01-26T04:25:17.245Z,94825.72
2023-01-26T04:26:14.592Z,94896.47
2023-01-26T04:27:11.795Z,94819.69
2023-01-26T04:28:08.537Z,94916.59
2023-01-26T04:29:08.808Z,94811.56
2023-01-26T04:30:06.291Z,94855.94
2023-01-26T04:31:04.744Z,94892.59
2023-01-26T04:32:01.589Z,94893.31
2023-01-26T04:32:59.501Z,94916.03
2023-01-26T04:33:56.306Z,94908.25
2023-01-26T04:34:53.438Z,94991.91
2023-01-26T04:35:50.267Z,94902.06
2023-01-26T04:36:47.053Z,94756.13
2023-01-26T04:37:43.867Z,94784.00
2023-01-26T04:38:40.722Z,94837.31
2023-01-26T04:39:37.527Z,94874.38
2023-01-26T04:40:34.262Z,94942.84
2023-01-26T04:41:32.307Z,94797.47
2023-01-26T04:42:29.071Z,94870.19
2023-01-26T04:43:25.881Z,94912.78
2023-01-26T04:44:22.717Z,94822.72
2023-01-26T04:45:19.537Z,94854.03
2023-01-26T04:46:16.963Z,94867.19
2023-01-26T04:47:13.728Z,94700.16
2023-01-26T04:48:10.523Z,94662.28
2023-01-26T04:49:07.268Z,94451.88
2023-01-26T04:50:04.627Z,94940.31
2023-01-26T04:51:04.747Z,94800.56
2023-01-26T04:52:01.481Z,94859.19
2023-01-26T04:52:58.390Z,94919.16
2023-01-26T04:53:55.184Z,94899.94
2023-01-26T04:54:51.966Z,94876.94
2023-01-26T04:55:48.773Z,94936.84
2023-01-26T04:56:45.605Z,94799.13
2023-01-26T04:57:42.340Z,94858.59
2023-01-26T04:58:39.086Z,94923.94
2023-01-26T04:59:40.201Z,94825.78
2023-01-26T05:00:36.974Z,94873.28
2023-01-26T05:01:34.432Z,94790.53
2023-01-26T05:02:31.311Z,94925.25
2023-01-26T05:03:28.049Z,94646.53
2023-01-26T05:04:24.870Z,94917.69
2023-01-26T05:05:21.733Z,94830.53
2023-01-26T05:06:18.702Z,94924.63
2023-01-26T05:07:15.407Z,94921.75
2023-01-26T05:08:12.201Z,94862.97
2023-01-26T05:09:09.245Z,94852.81
2023-01-26T05:10:06.391Z,94925.31
2023-01-26T05:11:03.293Z,94929.84
2023-01-26T05:12:19.956Z,94886.63
2023-01-26T05:13:16.783Z,94922.22
2023-01-26T05:14:13.610Z,94900.59
2023-01-26T05:15:10.814Z,94842.84
2023-01-26T05:16:08.337Z,94852.00
2023-01-26T05:17:05.192Z,94902.78
2023-01-26T05:18:03.095Z,94758.59
2023-01-26T05:18:59.950Z,94194.06
2023-01-26T05:19:56.852Z,94863.03
2023-01-26T05:20:54.060Z,94693.84
2023-01-26T05:21:50.832Z,94751.66
2023-01-26T05:22:47.621Z,94640.84
2023-01-26T05:23:44.517Z,94902.63
2023-01-26T05:24:41.334Z,94912.00
2023-01-26T05:25:38.096Z,94908.41
2023-01-26T05:26:34.889Z,94855.56
2023-01-26T05:27:31.721Z,94968.56
2023-01-26T05:28:28.495Z,94637.69
2023-01-26T05:29:25.231Z,94682.69
2023-01-26T05:30:22.306Z,94913.59
2023-01-26T05:31:19.155Z,94905.78
2023-01-26T05:32:16.288Z,94886.78
2023-01-26T05:33:13.063Z,94822.13
2023-01-26T05:34:09.814Z,94685.97
2023-01-26T05:35:07.654Z,94751.19
2023-01-26T05:36:07.335Z,94966.34
2023-01-26T05:37:04.409Z,94840.03
2023-01-26T05:38:01.445Z,94900.56
2023-01-26T05:38:58.246Z,94910.63
2023-01-26T05:39:55.966Z,94912.81
2023-01-26T05:40:52.716Z,94917.78
2023-01-26T05:41:49.671Z,94946.63
2023-01-26T05:42:46.639Z,94470.75
2023-01-26T05:43:43.434Z,94809.66
2023-01-26T05:44:40.218Z,94824.75
2023-01-26T05:45:37.416Z,94775.94
2023-01-26T05:46:34.167Z,94782.88
2023-01-26T05:47:31.028Z,94887.72
2023-01-26T05:48:28.987Z,94903.84
2023-01-26T05:49:25.881Z,94924.47
2023-01-26T05:50:22.584Z,94924.97
2023-01-26T05:51:19.371Z,94903.97
2023-01-26T05:52:19.139Z,94889.84
2023-01-26T05:53:15.959Z,94831.97
2023-01-26T05:54:12.835Z,94741.06
2023-01-26T05:55:09.778Z,94703.63
2023-01-26T05:56:06.875Z,94743.16
2023-01-26T05:57:03.984Z,94824.53
2023-01-26T05:58:00.717Z,94897.78
2023-01-26T05:58:57.480Z,94737.19
2023-01-26T05:59:54.344Z,94837.38
2023-01-26T06:00:51.148Z,94862.53
2023-01-26T06:01:47.861Z,94820.84
2023-01-26T06:02:46.325Z,94739.28
2023-01-26T06:03:45.028Z,94937.22
2023-01-26T06:04:41.807Z,94911.44
2023-01-26T06:05:39.052Z,94810.56
2023-01-26T06:06:35.835Z,94888.69
2023-01-26T06:07:32.743Z,94881.31
2023-01-26T06:08:29.501Z,94928.31
2023-01-26T06:09:27.465Z,94620.63
2023-01-26T06:10:24.511Z,94918.19
2023-01-26T06:11:21.288Z,94905.59
2023-01-26T06:12:20.791Z,94683.06
2023-01-26T06:13:17.492Z,94875.66
2023-01-26T06:14:15.140Z,94723.19
2023-01-26T06:15:12.757Z,94879.59
2023-01-26T06:16:09.504Z,94913.06
2023-01-26T06:17:06.353Z,94851.53
2023-01-26T06:18:03.180Z,94776.13
2023-01-26T06:18:59.948Z,94819.81
2023-01-26T06:19:59.699Z,94763.13
2023-01-26T06:21:01.029Z,94923.09
2023-01-26T06:21:57.911Z,94714.53
2023-01-26T06:22:54.734Z,94903.69
2023-01-26T06:23:51.498Z,94854.47
2023-01-26T06:24:48.306Z,94899.06
2023-01-26T06:25:45.119Z,94891.53
2023-01-26T06:26:41.923Z,94876.97
2023-01-26T06:27:42.147Z,94903.44
2023-01-26T06:28:39.389Z,94916.50
2023-01-26T06:29:36.199Z,94893.28
2023-01-26T06:30:34.621Z,94581.94
2023-01-26T06:31:31.504Z,94847.22
2023-01-26T06:32:29.502Z,94825.63
2023-01-26T06:33:27.659Z,94835.72
2023-01-26T06:34:24.430Z,94631.34
2023-01-26T06:35:21.358Z,94674.00
2023-01-26T06:36:18.186Z,94722.22
2023-01-26T06:37:17.720Z,94859.50
2023-01-26T06:38:15.746Z,94782.13
2023-01-26T06:39:13.537Z,94800.72
2023-01-26T06:40:11.300Z,94799.84
2023-01-26T06:41:09.435Z,94647.81
2023-01-26T06:42:08.420Z,94788.63
2023-01-26T06:43:05.208Z,94786.53
2023-01-26T06:44:02.031Z,94900.19
2023-01-26T06:44:59.041Z,94862.88
2023-01-26T06:45:57.882Z,94856.28
2023-01-26T06:46:54.672Z,94883.78
2023-01-26T06:47:51.541Z,94857.28
2023-01-26T06:48:48.399Z,94656.44
2023-01-26T06:49:45.157Z,94580.31
2023-01-26T06:50:44.673Z,94835.56
2023-01-26T06:51:45.539Z,94815.75
2023-01-26T06:52:44.404Z,94894.78
2023-01-26T06:53:47.491Z,94864.03
2023-01-26T06:54:44.292Z,94898.53
2023-01-26T06:55:41.871Z,94739.97
2023-01-26T06:56:39.516Z,94839.94
2023-01-26T06:57:36.356Z,94789.31
2023-01-26T06:58:33.132Z,94859.50
2023-01-26T06:59:32.395Z,94776.97
2023-01-26T07:00:29.229Z,94848.59
2023-01-26T07:01:27.049Z,94820.56
2023-01-26T07:02:24.339Z,94875.06
2023-01-26T07:03:21.236Z,94683.63
2023-01-26T07:04:18.554Z,94694.53
2023-01-26T07:05:15.357Z,94839.63
2023-01-26T07:06:12.188Z,94802.41
2023-01-26T07:07:08.935Z,94849.19
2023-01-26T07:08:07.643Z,94705.94
2023-01-26T07:09:04.808Z,94835.94
2023-01-26T07:10:01.733Z,94789.50
2023-01-26T07:10:58.489Z,94853.75
2023-01-26T07:11:55.279Z,94828.28
2023-01-26T07:12:52.142Z,94860.88
2023-01-26T07:13:48.898Z,94850.84
2023-01-26T07:14:45.736Z,94681.75
2023-01-26T07:15:42.471Z,94760.84
2023-01-26T07:16:39.399Z,94870.84
2023-01-26T07:17:36.237Z,94884.72
2023-01-26T07:18:33.343Z,94409.38
2023-01-26T07:19:31.520Z,94677.50
2023-01-26T07:20:28.763Z,94761.56
2023-01-26T07:21:25.592Z,94845.72
2023-01-26T07:22:22.434Z,94866.91
2023-01-26T07:23:19.238Z,94879.75
2023-01-26T07:24:16.063Z,94868.66
2023-01-26T07:25:13.020Z,94636.00
2023-01-26T07:26:10.055Z,94853.59
2023-01-26T07:27:07.530Z,94843.06
2023-01-26T07:28:04.621Z,94812.34
2023-01-26T07:29:01.543Z,94828.88
2023-01-26T07:29:58.371Z,94846.94
2023-01-26T07:30:58.250Z,94717.72
2023-01-26T07:31:55.195Z,94682.59
2023-01-26T07:32:51.986Z,94843.78
2023-01-26T07:33:48.707Z,94865.59
2023-01-26T07:34:45.465Z,94597.13
2023-01-26T07:35:42.255Z,94821.59
2023-01-26T07:36:39.170Z,94822.06
2023-01-26T07:37:35.963Z,94814.81
2023-01-26T07:38:34.326Z,94776.25
2023-01-26T07:39:31.762Z,94611.91
2023-01-26T07:40:28.581Z,94853.63
2023-01-26T07:41:25.451Z,94812.19
2023-01-26T07:42:23.289Z,94850.28
2023-01-26T07:43:20.151Z,94747.41
2023-01-26T07:44:17.039Z,94753.94
2023-01-26T07:45:13.913Z,94818.66
2023-01-26T07:46:10.987Z,94848.25
2023-01-26T07:47:07.767Z,94819.94
2023-01-26T07:48:04.736Z,94611.25
2023-01-26T07:49:01.537Z,94841.69
2023-01-26T07:49:58.334Z,94567.13
2023-01-26T07:50:58.983Z,94835.91
2023-01-26T07:51:55.921Z,94708.69
2023-01-26T07:52:52.861Z,94742.72
2023-01-26T07:53:50.117Z,94849.63
2023-01-26T07:54:46.907Z,94670.84
2023-01-26T07:55:43.847Z,94824.53
2023-01-26T07:56:40.693Z,94468.72
2023-01-26T07:57:37.415Z,94617.88
2023-01-26T07:58:35.760Z,94804.84
2023-01-26T07:59:32.605Z,94772.56
2023-01-26T08:00:29.570Z,94878.00
2023-01-26T08:01:26.450Z,94722.13
2023-01-26T08:02:23.418Z,94797.22
2023-01-26T08:03:20.201Z,94772.09
2023-01-26T08:04:17.294Z,94847.03
2023-01-26T08:05:14.242Z,94830.06
2023-01-26T08:06:14.130Z,94835.94
2023-01-26T08:07:12.184Z,94838.63
2023-01-26T08:08:09.714Z,94752.28
2023-01-26T08:09:06.557Z,94850.19
2023-01-26T08:10:04.205Z,94798.31
2023-01-26T08:11:02.567Z,94747.84
2023-01-26T08:11:59.406Z,94820.78
2023-01-26T08:12:56.148Z,94753.63
2023-01-26T08:13:53.104Z,94582.94
2023-01-26T08:14:49.905Z,94742.59
2023-01-26T08:15:46.625Z,94844.59
2023-01-26T08:16:45.482Z,94820.19
2023-01-26T08:17:42.393Z,94820.03
2023-01-26T08:18:40.976Z,94836.44
2023-01-26T08:19:37.905Z,94791.31
2023-01-26T08:20:34.688Z,94665.97
2023-01-26T08:21:31.409Z,94750.88
2023-01-26T08:22:28.104Z,94716.50
2023-01-26T08:23:24.963Z,94726.94
2023-01-26T08:24:21.888Z,94818.56
2023-01-26T08:25:18.699Z,94680.63
2023-01-26T08:26:15.591Z,94598.28
2023-01-26T08:27:12.546Z,94672.31
2023-01-26T08:28:09.342Z,94802.75
2023-01-26T08:29:06.353Z,94754.09
2023-01-26T08:30:03.417Z,94610.44
2023-01-26T08:31:11.470Z,94790.63
2023-01-26T08:32:09.343Z,94737.00
2023-01-26T08:33:08.563Z,94761.91
2023-01-26T08:34:05.368Z,94788.44
2023-01-26T08:35:02.137Z,94765.16
2023-01-26T08:36:04.529Z,94794.56
2023-01-26T08:37:02.252Z,94719.50
2023-01-26T08:37:59.205Z,94683.22
2023-01-26T08:38:55.996Z,94801.69
2023-01-26T08:39:52.876Z,94524.41
2023-01-26T08:40:53.090Z,94675.25
2023-01-26T08:41:49.934Z,94810.19
2023-01-26T08:42:46.736Z,94823.75
2023-01-26T08:43:43.987Z,94595.47
2023-01-26T08:44:40.799Z,94795.94
2023-01-26T08:45:37.671Z,94835.38
2023-01-26T08:46:36.879Z,94759.28
2023-01-26T08:47:33.824Z,94464.75
2023-01-26T08:48:31.856Z,94700.84
2023-01-26T08:49:28.590Z,94793.38
2023-01-26T08:50:26.485Z,94837.47
2023-01-26T08:51:23.803Z,94525.50
2023-01-26T08:52:21.858Z,94792.63
2023-01-26T08:53:18.736Z,94810.00
2023-01-26T08:54:15.565Z,94752.06
2023-01-26T08:55:12.570Z,94599.16
2023-01-26T08:56:12.625Z,94784.28
2023-01-26T08:57:09.437Z,94764.59
2023-01-26T08:58:06.222Z,94789.44
2023-01-26T08:59:03.309Z,94801.75
2023-01-26T09:00:00.225Z,94822.22
2023-01-26T09:00:57.057Z,94620.94
2023-01-26T09:01:55.760Z,94789.47
2023-01-26T09:03:00.664Z,94842.97
2023-01-26T09:03:58.409Z,94813.91
2023-01-26T09:04:55.250Z,94804.19
2023-01-26T09:05:52.060Z,94674.91
2023-01-26T09:06:48.855Z,94612.91
2023-01-26T09:07:45.790Z,94795.38
2023-01-26T09:08:42.645Z,94401.13
2023-01-26T09:09:39.475Z,94756.53
2023-01-26T09:10:38.680Z,94822.53
2023-01-26T09:11:35.456Z,94773.91
2023-01-26T09:12:32.536Z,94788.13
2023-01-26T09:13:29.379Z,94733.78
2023-01-26T09:14:27.447Z,94668.19
2023-01-26T09:15:24.846Z,94740.44
2023-01-26T09:16:22.236Z,94642.47
2023-01-26T09:17:19.053Z,94742.47
2023-01-26T09:18:16.067Z,94879.47
2023-01-26T09:19:12.952Z,94821.25
2023-01-26T09:20:11.951Z,94712.38
2023-01-26T09:21:10.007Z,94320.94
2023-01-26T09:22:06.837Z,94780.84
2023-01-26T09:23:03.567Z,94796.81
2023-01-26T09:24:00.447Z,94774.28
2023-01-26T09:24:57.695Z,94603.00
2023-01-26T09:25:54.535Z,94754.09
2023-01-26T09:26:51.467Z,94797.19
2023-01-26T09:27:48.246Z,94544.97
2023-01-26T09:28:45.048Z,94563.31
2023-01-26T09:29:41.848Z,94600.13
2023-01-26T09:30:38.739Z,94787.22
2023-01-26T09:31:35.618Z,94649.72
2023-01-26T09:32:33.099Z,94670.31
2023-01-26T09:33:29.846Z,94654.59
2023-01-26T09:34:26.699Z,94731.78
2023-01-26T09:35:23.442Z,94534.41
2023-01-26T09:36:20.451Z,94701.38
2023-01-26T09:37:17.817Z,94736.66
2023-01-26T09:38:14.740Z,94677.41
2023-01-26T09:39:11.510Z,94742.66
2023-01-26T09:40:22.137Z,94686.59
2023-01-26T09:41:44.053Z,94735.53
2023-01-26T09:42:55.935Z,94744.47
2023-01-26T09:43:57.652Z,94697.00
2023-01-26T09:45:12.943Z,94741.31
2023-01-26T09:46:23.241Z,94640.09
2023-01-26T09:47:34.547Z,94732.88
2023-01-26T09:49:02.132Z,94747.66
2023-01-26T09:50:18.050Z,94629.66
2023-01-26T09:51:24.974Z,94718.25
2023-01-26T09:52:33.821Z,94765.28
2023-01-26T09:54:09.449Z,94699.03
2023-01-26T09:55:17.482Z,94760.09
2023-01-26T09:56:25.473Z,94769.16
2023-01-26T09:57:28.136Z,94727.38
2023-01-26T09:58:47.150Z,94719.22
2023-01-26T09:59:56.312Z,94730.75
2023-01-26T10:01:00.340Z,94622.34
2023-01-26T10:02:13.165Z,94698.75
2023-01-26T10:03:43.647Z,94682.91
2023-01-26T10:04:45.212Z,94732.44
2023-01-26T10:05:52.123Z,94761.31
2023-01-26T10:06:52.564Z,94711.41
2023-01-26T10:07:49.405Z,94746.47
2023-01-26T10:08:46.325Z,94732.50
2023-01-26T10:09:51.051Z,94754.34
2023-01-26T10:10:56.314Z,94635.78
2023-01-26T10:12:05.990Z,94693.91
2023-01-26T10:13:11.904Z,94748.13
2023-01-26T10:14:21.334Z,94734.97
2023-01-26T10:15:54.089Z,94712.38
2023-01-26T10:16:54.038Z,94735.66
2023-01-26T10:17:55.092Z,94720.41
2023-01-26T10:18:59.459Z,94715.59
2023-01-26T10:20:20.113Z,94711.16
2023-01-26T10:21:22.722Z,94508.13
2023-01-26T10:22:34.920Z,94512.38
2023-01-26T10:23:34.597Z,94676.13
2023-01-26T10:24:34.046Z,94651.06
2023-01-26T10:25:37.515Z,94599.06
2023-01-26T10:26:34.454Z,94620.25
2023-01-26T10:27:31.244Z,94703.66
2023-01-26T10:28:33.228Z,94679.38
2023-01-26T10:29:32.928Z,94614.38
2023-01-26T10:30:29.804Z,94693.91
2023-01-26T10:31:33.488Z,94569.59
2023-01-26T10:32:32.444Z,94597.63
2023-01-26T10:33:35.413Z,94587.91
2023-01-26T10:34:35.406Z,94682.41
2023-01-26T10:35:32.211Z,94660.06
2023-01-26T10:36:32.969Z,94616.16
2023-01-26T10:37:30.777Z,94611.50
2023-01-26T10:38:33.594Z,94658.03
2023-01-26T10:39:30.460Z,94684.47
2023-01-26T10:40:27.208Z,94485.75
2023-01-26T10:41:31.555Z,94643.56
2023-01-26T10:42:31.563Z,94521.50
2023-01-26T10:43:28.459Z,94649.69
2023-01-26T10:44:33.663Z,94630.72
2023-01-26T10:45:34.100Z,94577.22
2023-01-26T10:46:30.969Z,94634.19
2023-01-26T10:47:28.475Z,94618.72
2023-01-26T10:48:26.757Z,94618.41
2023-01-26T10:49:24.361Z,94520.41
2023-01-26T10:50:25.230Z,94633.56
2023-01-26T10:51:27.295Z,94427.41
2023-01-26T10:52:27.328Z,94636.16
2023-01-26T10:53:30.112Z,94603.53
2023-01-26T10:54:28.554Z,94254.72
2023-01-26T10:55:25.572Z,94252.31
2023-01-26T10:56:22.839Z,94433.53
2023-01-26T10:57:32.694Z,94641.69
2023-01-26T10:58:52.734Z,94618.50
2023-01-26T10:59:55.229Z,94572.19
2023-01-26T11:00:56.789Z,94632.69
2023-01-26T11:02:01.314Z,94566.06
2023-01-26T11:03:19.061Z,94620.88
2023-01-26T11:04:16.469Z,94538.25
2023-01-26T11:05:25.037Z,94523.75
2023-01-26T11:06:29.050Z,94404.09
2023-01-26T11:07:28.682Z,94560.09
2023-01-26T11:08:37.264Z,94586.28
2023-01-26T11:09:34.171Z,94570.03
2023-01-26T11:10:34.873Z,94556.88
2023-01-26T11:11:31.856Z,94451.28
2023-01-26T11:12:28.672Z,94312.28
2023-01-26T11:13:25.831Z,94399.59
2023-01-26T11:14:22.607Z,94519.59
2023-01-26T11:15:25.226Z,94447.34
2023-01-26T11:16:26.422Z,94476.41
2023-01-26T11:17:31.630Z,94513.06
2023-01-26T11:18:49.784Z,94122.59
2023-01-26T11:20:10.856Z,94528.09
2023-01-26T11:21:18.510Z,94564.94
2023-01-26T11:22:42.228Z,94578.44
2023-01-26T11:23:39.404Z,94558.56
2023-01-26T11:25:12.012Z,94550.38
2023-01-26T11:26:20.687Z,94559.66
2023-01-26T11:27:44.771Z,94488.56
2023-01-26T11:29:02.695Z,94543.38
2023-01-26T11:30:38.376Z,94573.50
2023-01-26T11:31:39.455Z,94541.00
2023-01-26T11:32:47.732Z,94544.06
2023-01-26T11:34:15.056Z,94541.34
2023-01-26T11:35:37.835Z,94231.25
2023-01-26T11:37:19.730Z,94565.69
2023-01-26T11:38:55.404Z,94315.63
2023-01-26T11:40:05.054Z,94543.41
2023-01-26T11:41:26.389Z,94532.13
2023-01-26T11:42:26.055Z,94552.47
2023-01-26T11:43:54.389Z,94525.44
2023-01-26T11:45:15.076Z,94529.34
2023-01-26T11:46:23.718Z,94529.13
2023-01-26T11:48:06.595Z,94524.00
2023-01-26T11:49:18.898Z,94314.06
2023-01-26T11:50:23.640Z,94517.75
2023-01-26T11:53:16.100Z,94520.63
2023-01-26T11:54:39.683Z,94491.47
2023-01-26T11:55:53.476Z,94518.59